Swedesboro, New Jersey
Current Conditions -  °F | °C
As of 6:54 PM on Thursday 27 Nov 2014 (Local Time) from KPHL Reporting Station
Few Clouds Few Clouds  
Wind Chill: -1°   Ceiling: Unl
Heat Index:   Visibility: 10mi
Dew Point: -3°   Wind: 9mph
Humidity: 67%   Direction: 290°WNW
Pressure: 30.09"   Gusts: NA
Location:  39.75°N, 75.31°W
Report Text: KPHL 272354Z 29008KT 10SM FEW065 03/M03 A3009 RMK AO2 SLP190 T00281028 10056 20028 51017 $
Loading
Personal Weather Stations






























Interactive Weather Map New forecast layout! Learn more

10-Day Weather Forecast

Advertisements
Track Severe Weather on mobile